sensor_id;sensor_type;location;lat;lon;timestamp;P1;durP1;ratioP1;P2;durP2;ratioP2
9330;SDS011;4704;50.470;12.072;2023-11-21T00:01:39;1.20;;;1.08;;
9330;SDS011;4704;50.470;12.072;2023-11-21T00:04:07;1.80;;;1.40;;
9330;SDS011;4704;50.470;12.072;2023-11-21T00:06:34;1.33;;;1.20;;
9330;SDS011;4704;50.470;12.072;2023-11-21T00:09:01;1.77;;;1.30;;
9330;SDS011;4704;50.470;12.072;2023-11-21T00:11:30;1.20;;;1.10;;
9330;SDS011;4704;50.470;12.072;2023-11-21T00:13:57;1.67;;;1.27;;
9330;SDS011;4704;50.470;12.072;2023-11-21T00:16:25;1.40;;;1.30;;
9330;SDS011;4704;50.470;12.072;2023-11-21T00:18:53;1.30;;;1.20;;
9330;SDS011;4704;50.470;12.072;2023-11-21T00:21:21;1.50;;;1.40;;
9330;SDS011;4704;50.470;12.072;2023-11-21T00:23:48;1.55;;;1.20;;
9330;SDS011;4704;50.470;12.072;2023-11-21T00:26:15;1.33;;;1.17;;
9330;SDS011;4704;50.470;12.072;2023-11-21T00:28:42;0.93;;;0.93;;
9330;SDS011;4704;50.470;12.072;2023-11-21T00:31:10;1.38;;;1.27;;
9330;SDS011;4704;50.470;12.072;2023-11-21T00:33:38;1.02;;;1.00;;
9330;SDS011;4704;50.470;12.072;2023-11-21T00:36:08;1.00;;;1.00;;
9330;SDS011;4704;50.470;12.072;2023-11-21T00:38:36;1.08;;;0.98;;
9330;SDS011;4704;50.470;12.072;2023-11-21T00:41:05;2.03;;;1.50;;
9330;SDS011;4704;50.470;12.072;2023-11-21T00:43:32;1.10;;;1.00;;
9330;SDS011;4704;50.470;12.072;2023-11-21T00:46:03;1.20;;;1.10;;
9330;SDS011;4704;50.470;12.072;2023-11-21T00:48:32;1.10;;;1.00;;
9330;SDS011;4704;50.470;12.072;2023-11-21T00:50:59;1.10;;;1.00;;
9330;SDS011;4704;50.470;12.072;2023-11-21T00:53:28;1.23;;;1.10;;
9330;SDS011;4704;50.470;12.072;2023-11-21T00:55:55;0.80;;;0.80;;
9330;SDS011;4704;50.470;12.072;2023-11-21T00:58:23;1.20;;;1.10;;
9330;SDS011;4704;50.470;12.072;2023-11-21T01:00:50;1.67;;;0.90;;
9330;SDS011;4704;50.470;12.072;2023-11-21T01:03:17;1.10;;;1.00;;
9330;SDS011;4704;50.470;12.072;2023-11-21T01:05:45;1.00;;;0.90;;
9330;SDS011;4704;50.470;12.072;2023-11-21T01:08:14;1.33;;;1.08;;
9330;SDS011;4704;50.470;12.072;2023-11-21T01:10:43;1.10;;;1.00;;
9330;SDS011;4704;50.470;12.072;2023-11-21T01:13:11;1.48;;;0.90;;
9330;SDS011;4704;50.470;12.072;2023-11-21T01:15:40;1.00;;;0.90;;
9330;SDS011;4704;50.470;12.072;2023-11-21T01:18:07;1.20;;;1.10;;
9330;SDS011;4704;50.470;12.072;2023-11-21T01:20:35;1.25;;;1.00;;
9330;SDS011;4704;50.470;12.072;2023-11-21T01:23:02;1.20;;;1.00;;
9330;SDS011;4704;50.470;12.072;2023-11-21T01:25:30;0.90;;;0.90;;
9330;SDS011;4704;50.470;12.072;2023-11-21T01:27:59;0.90;;;0.90;;
9330;SDS011;4704;50.470;12.072;2023-11-21T01:30:26;1.00;;;0.90;;
9330;SDS011;4704;50.470;12.072;2023-11-21T01:32:53;1.00;;;0.90;;
9330;SDS011;4704;50.470;12.072;2023-11-21T01:35:21;1.33;;;1.00;;
9330;SDS011;4704;50.470;12.072;2023-11-21T01:37:49;1.15;;;1.05;;
9330;SDS011;4704;50.470;12.072;2023-11-21T01:40:16;1.02;;;0.90;;
9330;SDS011;4704;50.470;12.072;2023-11-21T01:42:44;0.80;;;0.80;;
9330;SDS011;4704;50.470;12.072;2023-11-21T01:45:14;1.00;;;0.90;;
9330;SDS011;4704;50.470;12.072;2023-11-21T01:47:41;1.00;;;0.90;;
9330;SDS011;4704;50.470;12.072;2023-11-21T01:50:09;0.82;;;0.82;;
9330;SDS011;4704;50.470;12.072;2023-11-21T01:52:39;1.00;;;0.90;;
9330;SDS011;4704;50.470;12.072;2023-11-21T01:55:07;0.80;;;0.80;;
9330;SDS011;4704;50.470;12.072;2023-11-21T01:57:35;0.93;;;0.90;;
9330;SDS011;4704;50.470;12.072;2023-11-21T02:00:03;0.80;;;0.80;;
9330;SDS011;4704;50.470;12.072;2023-11-21T02:02:42;0.90;;;0.80;;
9330;SDS011;4704;50.470;12.072;2023-11-21T02:05:10;1.10;;;0.82;;
9330;SDS011;4704;50.470;12.072;2023-11-21T02:07:38;0.80;;;0.80;;
9330;SDS011;4704;50.470;12.072;2023-11-21T02:10:06;0.80;;;0.80;;
9330;SDS011;4704;50.470;12.072;2023-11-21T02:12:34;0.77;;;0.77;;
9330;SDS011;4704;50.470;12.072;2023-11-21T02:15:02;1.00;;;0.90;;
9330;SDS011;4704;50.470;12.072;2023-11-21T02:17:30;1.63;;;0.98;;
9330;SDS011;4704;50.470;12.072;2023-11-21T02:19:59;0.80;;;0.70;;
9330;SDS011;4704;50.470;12.072;2023-11-21T02:22:27;0.77;;;0.68;;
9330;SDS011;4704;50.470;12.072;2023-11-21T02:24:59;0.80;;;0.80;;
9330;SDS011;4704;50.470;12.072;2023-11-21T02:27:26;1.10;;;1.00;;
9330;SDS011;4704;50.470;12.072;2023-11-21T02:29:54;0.75;;;0.75;;
9330;SDS011;4704;50.470;12.072;2023-11-21T02:32:21;0.88;;;0.88;;
9330;SDS011;4704;50.470;12.072;2023-11-21T02:34:51;1.00;;;0.90;;
9330;SDS011;4704;50.470;12.072;2023-11-21T02:37:21;0.70;;;0.70;;
9330;SDS011;4704;50.470;12.072;2023-11-21T02:39:48;0.80;;;0.80;;
9330;SDS011;4704;50.470;12.072;2023-11-21T02:42:17;1.52;;;0.85;;
9330;SDS011;4704;50.470;12.072;2023-11-21T02:44:44;0.70;;;0.70;;
9330;SDS011;4704;50.470;12.072;2023-11-21T02:47:11;0.70;;;0.70;;
9330;SDS011;4704;50.470;12.072;2023-11-21T02:49:39;0.70;;;0.70;;
9330;SDS011;4704;50.470;12.072;2023-11-21T02:52:06;0.80;;;0.80;;
9330;SDS011;4704;50.470;12.072;2023-11-21T02:54:34;0.80;;;0.68;;
9330;SDS011;4704;50.470;12.072;2023-11-21T02:57:01;1.00;;;0.90;;
9330;SDS011;4704;50.470;12.072;2023-11-21T02:59:30;0.80;;;0.80;;
9330;SDS011;4704;50.470;12.072;2023-11-21T03:01:57;1.23;;;0.70;;
9330;SDS011;4704;50.470;12.072;2023-11-21T03:04:25;0.75;;;0.68;;
9330;SDS011;4704;50.470;12.072;2023-11-21T03:06:52;0.73;;;0.73;;
9330;SDS011;4704;50.470;12.072;2023-11-21T03:09:19;0.90;;;0.90;;
9330;SDS011;4704;50.470;12.072;2023-11-21T03:11:47;0.80;;;0.80;;
9330;SDS011;4704;50.470;12.072;2023-11-21T03:14:14;1.75;;;0.93;;
9330;SDS011;4704;50.470;12.072;2023-11-21T03:16:43;0.80;;;0.80;;
9330;SDS011;4704;50.470;12.072;2023-11-21T03:19:11;0.65;;;0.65;;
9330;SDS011;4704;50.470;12.072;2023-11-21T03:21:40;0.70;;;0.70;;
9330;SDS011;4704;50.470;12.072;2023-11-21T03:24:07;0.70;;;0.70;;
9330;SDS011;4704;50.470;12.072;2023-11-21T03:26:34;0.70;;;0.70;;
9330;SDS011;4704;50.470;12.072;2023-11-21T03:29:02;0.88;;;0.70;;
9330;SDS011;4704;50.470;12.072;2023-11-21T03:31:30;0.80;;;0.80;;
9330;SDS011;4704;50.470;12.072;2023-11-21T03:33:59;0.70;;;0.70;;
9330;SDS011;4704;50.470;12.072;2023-11-21T03:36:26;0.80;;;0.80;;
9330;SDS011;4704;50.470;12.072;2023-11-21T03:38:53;0.70;;;0.70;;
9330;SDS011;4704;50.470;12.072;2023-11-21T03:41:21;0.88;;;0.52;;
9330;SDS011;4704;50.470;12.072;2023-11-21T03:43:48;0.70;;;0.70;;
9330;SDS011;4704;50.470;12.072;2023-11-21T03:46:16;0.80;;;0.80;;
9330;SDS011;4704;50.470;12.072;2023-11-21T03:48:43;0.60;;;0.60;;
9330;SDS011;4704;50.470;12.072;2023-11-21T03:51:12;0.68;;;0.63;;
9330;SDS011;4704;50.470;12.072;2023-11-21T03:53:39;0.90;;;0.90;;
9330;SDS011;4704;50.470;12.072;2023-11-21T03:56:07;0.65;;;0.63;;
9330;SDS011;4704;50.470;12.072;2023-11-21T03:58:35;0.65;;;0.60;;
9330;SDS011;4704;50.470;12.072;2023-11-21T04:01:02;0.75;;;0.60;;
9330;SDS011;4704;50.470;12.072;2023-11-21T04:03:29;0.50;;;0.50;;
9330;SDS011;4704;50.470;12.072;2023-11-21T04:05:56;0.60;;;0.60;;
9330;SDS011;4704;50.470;12.072;2023-11-21T04:08:25;0.55;;;0.55;;
9330;SDS011;4704;50.470;12.072;2023-11-21T04:10:53;0.60;;;0.60;;
9330;SDS011;4704;50.470;12.072;2023-11-21T04:13:20;1.70;;;0.65;;
9330;SDS011;4704;50.470;12.072;2023-11-21T04:15:48;0.60;;;0.60;;
9330;SDS011;4704;50.470;12.072;2023-11-21T04:18:15;0.77;;;0.77;;
9330;SDS011;4704;50.470;12.072;2023-11-21T04:20:43;0.50;;;0.50;;
9330;SDS011;4704;50.470;12.072;2023-11-21T04:23:11;0.50;;;0.50;;
9330;SDS011;4704;50.470;12.072;2023-11-21T04:25:40;0.60;;;0.60;;
9330;SDS011;4704;50.470;12.072;2023-11-21T04:28:08;0.70;;;0.70;;
9330;SDS011;4704;50.470;12.072;2023-11-21T04:30:35;0.68;;;0.60;;
9330;SDS011;4704;50.470;12.072;2023-11-21T04:33:04;0.70;;;0.70;;
9330;SDS011;4704;50.470;12.072;2023-11-21T04:35:32;0.57;;;0.57;;
9330;SDS011;4704;50.470;12.072;2023-11-21T04:38:00;0.68;;;0.68;;
9330;SDS011;4704;50.470;12.072;2023-11-21T04:40:28;0.68;;;0.68;;
9330;SDS011;4704;50.470;12.072;2023-11-21T04:42:57;0.65;;;0.65;;
9330;SDS011;4704;50.470;12.072;2023-11-21T04:45:24;0.65;;;0.65;;
9330;SDS011;4704;50.470;12.072;2023-11-21T04:47:51;0.55;;;0.55;;
9330;SDS011;4704;50.470;12.072;2023-11-21T04:50:18;0.60;;;0.60;;
9330;SDS011;4704;50.470;12.072;2023-11-21T04:52:47;0.57;;;0.57;;
9330;SDS011;4704;50.470;12.072;2023-11-21T04:55:14;0.93;;;0.82;;
9330;SDS011;4704;50.470;12.072;2023-11-21T04:57:41;0.60;;;0.60;;
9330;SDS011;4704;50.470;12.072;2023-11-21T05:00:11;0.60;;;0.60;;
9330;SDS011;4704;50.470;12.072;2023-11-21T05:02:38;0.63;;;0.63;;
9330;SDS011;4704;50.470;12.072;2023-11-21T05:05:07;1.40;;;0.60;;
9330;SDS011;4704;50.470;12.072;2023-11-21T05:07:35;0.60;;;0.60;;
9330;SDS011;4704;50.470;12.072;2023-11-21T05:10:03;0.57;;;0.57;;
9330;SDS011;4704;50.470;12.072;2023-11-21T05:12:33;0.70;;;0.60;;
9330;SDS011;4704;50.470;12.072;2023-11-21T05:15:02;0.70;;;0.60;;
9330;SDS011;4704;50.470;12.072;2023-11-21T05:17:34;0.60;;;0.60;;
9330;SDS011;4704;50.470;12.072;2023-11-21T05:20:02;0.60;;;0.50;;
9330;SDS011;4704;50.470;12.072;2023-11-21T05:22:33;0.52;;;0.52;;
9330;SDS011;4704;50.470;12.072;2023-11-21T05:25:00;0.60;;;0.60;;
9330;SDS011;4704;50.470;12.072;2023-11-21T05:27:28;0.60;;;0.60;;
9330;SDS011;4704;50.470;12.072;2023-11-21T05:29:56;0.60;;;0.60;;
9330;SDS011;4704;50.470;12.072;2023-11-21T05:32:23;0.98;;;0.80;;
9330;SDS011;4704;50.470;12.072;2023-11-21T05:34:53;0.50;;;0.50;;
9330;SDS011;4704;50.470;12.072;2023-11-21T05:37:20;0.57;;;0.57;;
9330;SDS011;4704;50.470;12.072;2023-11-21T05:39:48;0.50;;;0.50;;
9330;SDS011;4704;50.470;12.072;2023-11-21T05:42:16;0.60;;;0.60;;
9330;SDS011;4704;50.470;12.072;2023-11-21T05:44:43;1.67;;;0.50;;
9330;SDS011;4704;50.470;12.072;2023-11-21T05:47:11;0.73;;;0.70;;
9330;SDS011;4704;50.470;12.072;2023-11-21T05:49:38;0.60;;;0.60;;
9330;SDS011;4704;50.470;12.072;2023-11-21T05:52:07;0.60;;;0.60;;
9330;SDS011;4704;50.470;12.072;2023-11-21T05:54:35;0.70;;;0.70;;
9330;SDS011;4704;50.470;12.072;2023-11-21T05:57:02;0.75;;;0.60;;
9330;SDS011;4704;50.470;12.072;2023-11-21T05:59:30;0.77;;;0.70;;
9330;SDS011;4704;50.470;12.072;2023-11-21T06:01:57;0.63;;;0.63;;
9330;SDS011;4704;50.470;12.072;2023-11-21T06:04:25;0.47;;;0.47;;
9330;SDS011;4704;50.470;12.072;2023-11-21T06:06:52;0.73;;;0.52;;
9330;SDS011;4704;50.470;12.072;2023-11-21T06:09:21;0.40;;;0.40;;
9330;SDS011;4704;50.470;12.072;2023-11-21T06:11:50;0.70;;;0.52;;
9330;SDS011;4704;50.470;12.072;2023-11-21T06:14:17;0.63;;;0.50;;
9330;SDS011;4704;50.470;12.072;2023-11-21T06:16:47;0.57;;;0.57;;
9330;SDS011;4704;50.470;12.072;2023-11-21T06:19:16;0.60;;;0.60;;
9330;SDS011;4704;50.470;12.072;2023-11-21T06:21:45;0.55;;;0.55;;
9330;SDS011;4704;50.470;12.072;2023-11-21T06:24:12;0.68;;;0.45;;
9330;SDS011;4704;50.470;12.072;2023-11-21T06:26:41;0.55;;;0.50;;
9330;SDS011;4704;50.470;12.072;2023-11-21T06:29:10;0.60;;;0.60;;
9330;SDS011;4704;50.470;12.072;2023-11-21T06:31:38;0.60;;;0.60;;
9330;SDS011;4704;50.470;12.072;2023-11-21T06:34:06;0.65;;;0.65;;
9330;SDS011;4704;50.470;12.072;2023-11-21T06:36:34;0.50;;;0.50;;
9330;SDS011;4704;50.470;12.072;2023-11-21T06:39:02;1.30;;;0.52;;
9330;SDS011;4704;50.470;12.072;2023-11-21T06:41:32;0.80;;;0.60;;
9330;SDS011;4704;50.470;12.072;2023-11-21T06:44:00;0.80;;;0.70;;
9330;SDS011;4704;50.470;12.072;2023-11-21T06:46:29;0.90;;;0.70;;
9330;SDS011;4704;50.470;12.072;2023-11-21T06:48:56;1.08;;;0.73;;
9330;SDS011;4704;50.470;12.072;2023-11-21T06:51:24;0.60;;;0.60;;
9330;SDS011;4704;50.470;12.072;2023-11-21T06:53:51;1.15;;;0.60;;
9330;SDS011;4704;50.470;12.072;2023-11-21T06:56:19;1.25;;;0.63;;
9330;SDS011;4704;50.470;12.072;2023-11-21T06:58:46;0.60;;;0.60;;
9330;SDS011;4704;50.470;12.072;2023-11-21T07:01:15;0.55;;;0.55;;
9330;SDS011;4704;50.470;12.072;2023-11-21T07:03:42;1.13;;;0.50;;
9330;SDS011;4704;50.470;12.072;2023-11-21T07:06:10;0.80;;;0.70;;
9330;SDS011;4704;50.470;12.072;2023-11-21T07:08:38;1.23;;;0.68;;
9330;SDS011;4704;50.470;12.072;2023-11-21T07:11:05;1.60;;;0.50;;
9330;SDS011;4704;50.470;12.072;2023-11-21T07:13:32;0.88;;;0.65;;
9330;SDS011;4704;50.470;12.072;2023-11-21T07:16:00;0.60;;;0.60;;
9330;SDS011;4704;50.470;12.072;2023-11-21T07:18:30;0.85;;;0.60;;
9330;SDS011;4704;50.470;12.072;2023-11-21T07:20:57;1.10;;;0.65;;
9330;SDS011;4704;50.470;12.072;2023-11-21T07:23:25;0.70;;;0.50;;
9330;SDS011;4704;50.470;12.072;2023-11-21T07:25:52;0.65;;;0.65;;
9330;SDS011;4704;50.470;12.072;2023-11-21T07:28:19;0.60;;;0.60;;
9330;SDS011;4704;50.470;12.072;2023-11-21T07:30:46;1.45;;;0.60;;
9330;SDS011;4704;50.470;12.072;2023-11-21T07:33:14;1.48;;;0.85;;
9330;SDS011;4704;50.470;12.072;2023-11-21T07:35:44;0.65;;;0.65;;
9330;SDS011;4704;50.470;12.072;2023-11-21T07:38:11;1.67;;;0.85;;
9330;SDS011;4704;50.470;12.072;2023-11-21T07:40:39;0.70;;;0.60;;
9330;SDS011;4704;50.470;12.072;2023-11-21T07:43:06;1.95;;;0.95;;
9330;SDS011;4704;50.470;12.072;2023-11-21T07:45:34;0.98;;;0.60;;
9330;SDS011;4704;50.470;12.072;2023-11-21T07:48:02;0.80;;;0.70;;
9330;SDS011;4704;50.470;12.072;2023-11-21T07:50:30;1.30;;;0.75;;
9330;SDS011;4704;50.470;12.072;2023-11-21T07:52:58;1.73;;;0.80;;
9330;SDS011;4704;50.470;12.072;2023-11-21T07:55:26;0.60;;;0.60;;
9330;SDS011;4704;50.470;12.072;2023-11-21T07:57:57;0.60;;;0.60;;
9330;SDS011;4704;50.470;12.072;2023-11-21T08:00:24;1.25;;;0.68;;
9330;SDS011;4704;50.470;12.072;2023-11-21T08:02:55;0.80;;;0.63;;
9330;SDS011;4704;50.470;12.072;2023-11-21T08:05:22;0.60;;;0.57;;
9330;SDS011;4704;50.470;12.072;2023-11-21T08:07:49;2.05;;;0.95;;
9330;SDS011;4704;50.470;12.072;2023-11-21T08:10:18;0.80;;;0.70;;
9330;SDS011;4704;50.470;12.072;2023-11-21T08:12:46;0.77;;;0.65;;
9330;SDS011;4704;50.470;12.072;2023-11-21T08:15:16;0.80;;;0.80;;
9330;SDS011;4704;50.470;12.072;2023-11-21T08:17:44;1.02;;;0.70;;
9330;SDS011;4704;50.470;12.072;2023-11-21T08:20:11;1.15;;;0.85;;
9330;SDS011;4704;50.470;12.072;2023-11-21T08:22:41;0.98;;;0.90;;
9330;SDS011;4704;50.470;12.072;2023-11-21T08:25:09;1.15;;;0.80;;
9330;SDS011;4704;50.470;12.072;2023-11-21T08:27:38;1.65;;;0.90;;
9330;SDS011;4704;50.470;12.072;2023-11-21T08:30:05;0.95;;;0.85;;
9330;SDS011;4704;50.470;12.072;2023-11-21T08:32:33;1.13;;;0.80;;
9330;SDS011;4704;50.470;12.072;2023-11-21T08:35:00;1.10;;;0.82;;
9330;SDS011;4704;50.470;12.072;2023-11-21T08:37:28;1.02;;;0.90;;
9330;SDS011;4704;50.470;12.072;2023-11-21T08:39:58;2.00;;;0.80;;
9330;SDS011;4704;50.470;12.072;2023-11-21T08:42:26;0.70;;;0.70;;
9330;SDS011;4704;50.470;12.072;2023-11-21T08:44:56;1.17;;;1.08;;
9330;SDS011;4704;50.470;12.072;2023-11-21T08:47:23;0.90;;;0.90;;
9330;SDS011;4704;50.470;12.072;2023-11-21T08:49:51;1.05;;;0.80;;
9330;SDS011;4704;50.470;12.072;2023-11-21T08:52:19;0.73;;;0.73;;
9330;SDS011;4704;50.470;12.072;2023-11-21T08:54:48;0.77;;;0.77;;
9330;SDS011;4704;50.470;12.072;2023-11-21T08:57:21;1.00;;;0.80;;
9330;SDS011;4704;50.470;12.072;2023-11-21T08:59:48;0.88;;;0.73;;
9330;SDS011;4704;50.470;12.072;2023-11-21T09:02:21;1.40;;;0.90;;
9330;SDS011;4704;50.470;12.072;2023-11-21T09:04:49;0.80;;;0.80;;
9330;SDS011;4704;50.470;12.072;2023-11-21T09:07:17;0.80;;;0.70;;
9330;SDS011;4704;50.470;12.072;2023-11-21T09:09:45;1.23;;;0.73;;
9330;SDS011;4704;50.470;12.072;2023-11-21T09:12:13;1.30;;;1.00;;
9330;SDS011;4704;50.470;12.072;2023-11-21T09:14:42;0.70;;;0.70;;
9330;SDS011;4704;50.470;12.072;2023-11-21T09:17:09;0.90;;;0.80;;
9330;SDS011;4704;50.470;12.072;2023-11-21T09:19:38;0.80;;;0.80;;
9330;SDS011;4704;50.470;12.072;2023-11-21T09:22:06;1.17;;;0.80;;
9330;SDS011;4704;50.470;12.072;2023-11-21T09:24:34;0.90;;;0.65;;
9330;SDS011;4704;50.470;12.072;2023-11-21T09:27:03;1.13;;;1.02;;
9330;SDS011;4704;50.470;12.072;2023-11-21T09:29:30;0.90;;;0.90;;
9330;SDS011;4704;50.470;12.072;2023-11-21T09:31:58;0.70;;;0.70;;
9330;SDS011;4704;50.470;12.072;2023-11-21T09:34:26;1.00;;;0.90;;
9330;SDS011;4704;50.470;12.072;2023-11-21T09:36:55;1.27;;;0.82;;
9330;SDS011;4704;50.470;12.072;2023-11-21T09:39:23;0.80;;;0.75;;
9330;SDS011;4704;50.470;12.072;2023-11-21T09:41:51;1.00;;;0.80;;
9330;SDS011;4704;50.470;12.072;2023-11-21T09:44:22;1.40;;;0.90;;
9330;SDS011;4704;50.470;12.072;2023-11-21T09:46:54;0.98;;;0.80;;
9330;SDS011;4704;50.470;12.072;2023-11-21T09:49:22;2.08;;;1.05;;
9330;SDS011;4704;50.470;12.072;2023-11-21T09:51:51;1.00;;;0.90;;
9330;SDS011;4704;50.470;12.072;2023-11-21T09:54:22;0.93;;;0.90;;
9330;SDS011;4704;50.470;12.072;2023-11-21T09:56:50;1.30;;;0.95;;
9330;SDS011;4704;50.470;12.072;2023-11-21T09:59:17;1.00;;;0.90;;
9330;SDS011;4704;50.470;12.072;2023-11-21T10:01:46;1.00;;;0.90;;
9330;SDS011;4704;50.470;12.072;2023-11-21T10:04:15;1.20;;;1.00;;
9330;SDS011;4704;50.470;12.072;2023-11-21T10:06:42;1.77;;;1.10;;
9330;SDS011;4704;50.470;12.072;2023-11-21T10:09:11;1.48;;;0.80;;
9330;SDS011;4704;50.470;12.072;2023-11-21T10:11:41;1.50;;;1.00;;
9330;SDS011;4704;50.470;12.072;2023-11-21T10:14:10;1.00;;;0.77;;
9330;SDS011;4704;50.470;12.072;2023-11-21T10:16:40;2.15;;;0.90;;
9330;SDS011;4704;50.470;12.072;2023-11-21T10:19:09;1.80;;;0.85;;
9330;SDS011;4704;50.470;12.072;2023-11-21T10:21:41;1.17;;;0.77;;
9330;SDS011;4704;50.470;12.072;2023-11-21T10:24:08;0.90;;;0.73;;
9330;SDS011;4704;50.470;12.072;2023-11-21T10:26:37;0.90;;;0.90;;
9330;SDS011;4704;50.470;12.072;2023-11-21T10:29:07;1.58;;;1.00;;
9330;SDS011;4704;50.470;12.072;2023-11-21T10:31:34;1.25;;;0.90;;
9330;SDS011;4704;50.470;12.072;2023-11-21T10:34:13;1.05;;;0.95;;
9330;SDS011;4704;50.470;12.072;2023-11-21T10:36:41;1.95;;;1.00;;
9330;SDS011;4704;50.470;12.072;2023-11-21T10:39:08;1.17;;;0.85;;
9330;SDS011;4704;50.470;12.072;2023-11-21T10:41:36;1.13;;;0.93;;
9330;SDS011;4704;50.470;12.072;2023-11-21T10:44:04;0.88;;;0.80;;
9330;SDS011;4704;50.470;12.072;2023-11-21T10:46:35;1.08;;;0.88;;
9330;SDS011;4704;50.470;12.072;2023-11-21T10:49:03;0.98;;;0.80;;
9330;SDS011;4704;50.470;12.072;2023-11-21T10:51:31;1.20;;;1.00;;
9330;SDS011;4704;50.470;12.072;2023-11-21T10:53:59;1.35;;;0.80;;
9330;SDS011;4704;50.470;12.072;2023-11-21T10:56:26;0.95;;;0.93;;
9330;SDS011;4704;50.470;12.072;2023-11-21T10:58:55;1.92;;;0.90;;
9330;SDS011;4704;50.470;12.072;2023-11-21T11:01:23;1.67;;;0.90;;
9330;SDS011;4704;50.470;12.072;2023-11-21T11:03:55;1.42;;;1.02;;
9330;SDS011;4704;50.470;12.072;2023-11-21T11:06:23;1.55;;;0.90;;
9330;SDS011;4704;50.470;12.072;2023-11-21T11:08:52;1.05;;;0.95;;
9330;SDS011;4704;50.470;12.072;2023-11-21T11:11:20;1.15;;;1.00;;
9330;SDS011;4704;50.470;12.072;2023-11-21T11:13:47;0.77;;;0.73;;
9330;SDS011;4704;50.470;12.072;2023-11-21T11:16:15;1.70;;;0.93;;
9330;SDS011;4704;50.470;12.072;2023-11-21T11:18:43;1.15;;;0.90;;
9330;SDS011;4704;50.470;12.072;2023-11-21T11:21:17;1.70;;;1.13;;
9330;SDS011;4704;50.470;12.072;2023-11-21T11:23:53;1.13;;;1.00;;
9330;SDS011;4704;50.470;12.072;2023-11-21T11:26:28;1.20;;;1.10;;
9330;SDS011;4704;50.470;12.072;2023-11-21T11:29:00;1.20;;;1.10;;
9330;SDS011;4704;50.470;12.072;2023-11-21T11:31:36;1.08;;;0.98;;
9330;SDS011;4704;50.470;12.072;2023-11-21T11:34:06;1.38;;;1.08;;
9330;SDS011;4704;50.470;12.072;2023-11-21T11:36:39;1.00;;;0.90;;
9330;SDS011;4704;50.470;12.072;2023-11-21T11:39:26;1.08;;;0.98;;
9330;SDS011;4704;50.470;12.072;2023-11-21T11:41:55;1.42;;;1.00;;
9330;SDS011;4704;50.470;12.072;2023-11-21T11:44:46;1.10;;;0.80;;
9330;SDS011;4704;50.470;12.072;2023-11-21T11:47:16;1.15;;;1.00;;
9330;SDS011;4704;50.470;12.072;2023-11-21T11:49:55;0.98;;;0.90;;
9330;SDS011;4704;50.470;12.072;2023-11-21T11:52:38;1.00;;;0.90;;
9330;SDS011;4704;50.470;12.072;2023-11-21T11:55:06;1.25;;;0.90;;
9330;SDS011;4704;50.470;12.072;2023-11-21T11:57:35;3.15;;;0.90;;
9330;SDS011;4704;50.470;12.072;2023-11-21T12:00:07;1.05;;;0.90;;
9330;SDS011;4704;50.470;12.072;2023-11-21T12:02:35;2.45;;;0.90;;
9330;SDS011;4704;50.470;12.072;2023-11-21T12:05:07;0.93;;;0.90;;
9330;SDS011;4704;50.470;12.072;2023-11-21T12:10:20;0.95;;;0.90;;
9330;SDS011;4704;50.470;12.072;2023-11-21T12:12:50;1.05;;;0.95;;
9330;SDS011;4704;50.470;12.072;2023-11-21T12:15:17;1.55;;;1.10;;
9330;SDS011;4704;50.470;12.072;2023-11-21T12:17:45;1.70;;;1.00;;
9330;SDS011;4704;50.470;12.072;2023-11-21T12:20:14;1.20;;;1.10;;
9330;SDS011;4704;50.470;12.072;2023-11-21T12:22:43;1.08;;;0.98;;
9330;SDS011;4704;50.470;12.072;2023-11-21T12:25:13;1.13;;;1.00;;
9330;SDS011;4704;50.470;12.072;2023-11-21T12:27:43;1.35;;;1.00;;
9330;SDS011;4704;50.470;12.072;2023-11-21T12:30:12;1.77;;;1.00;;
9330;SDS011;4704;50.470;12.072;2023-11-21T12:32:41;1.05;;;0.85;;
9330;SDS011;4704;50.470;12.072;2023-11-21T12:35:08;1.25;;;0.90;;
9330;SDS011;4704;50.470;12.072;2023-11-21T12:37:36;1.00;;;1.00;;
9330;SDS011;4704;50.470;12.072;2023-11-21T12:40:05;1.00;;;0.90;;
9330;SDS011;4704;50.470;12.072;2023-11-21T12:42:33;1.00;;;0.80;;
9330;SDS011;4704;50.470;12.072;2023-11-21T12:45:09;1.08;;;0.90;;
9330;SDS011;4704;50.470;12.072;2023-11-21T12:47:41;1.20;;;1.10;;
9330;SDS011;4704;50.470;12.072;2023-11-21T12:50:08;1.45;;;0.90;;
9330;SDS011;4704;50.470;12.072;2023-11-21T12:52:40;1.00;;;0.90;;
9330;SDS011;4704;50.470;12.072;2023-11-21T12:55:12;1.15;;;1.05;;
9330;SDS011;4704;50.470;12.072;2023-11-21T12:57:41;2.13;;;1.30;;
9330;SDS011;4704;50.470;12.072;2023-11-21T13:00:11;1.40;;;1.20;;
9330;SDS011;4704;50.470;12.072;2023-11-21T13:02:52;0.93;;;0.90;;
9330;SDS011;4704;50.470;12.072;2023-11-21T13:05:24;1.15;;;1.05;;
9330;SDS011;4704;50.470;12.072;2023-11-21T13:07:52;1.52;;;1.20;;
9330;SDS011;4704;50.470;12.072;2023-11-21T13:10:20;1.10;;;0.98;;
9330;SDS011;4704;50.470;12.072;2023-11-21T13:12:51;1.10;;;1.00;;
9330;SDS011;4704;50.470;12.072;2023-11-21T13:15:21;1.10;;;1.00;;
9330;SDS011;4704;50.470;12.072;2023-11-21T13:17:49;1.15;;;1.00;;
9330;SDS011;4704;50.470;12.072;2023-11-21T13:20:18;1.10;;;1.00;;
9330;SDS011;4704;50.470;12.072;2023-11-21T13:22:49;2.03;;;1.20;;
9330;SDS011;4704;50.470;12.072;2023-11-21T13:25:19;1.48;;;1.00;;
9330;SDS011;4704;50.470;12.072;2023-11-21T13:27:46;1.10;;;1.00;;
9330;SDS011;4704;50.470;12.072;2023-11-21T13:30:14;1.45;;;1.33;;
9330;SDS011;4704;50.470;12.072;2023-11-21T13:32:44;1.10;;;1.00;;
9330;SDS011;4704;50.470;12.072;2023-11-21T13:35:12;1.13;;;1.02;;
9330;SDS011;4704;50.470;12.072;2023-11-21T13:37:49;1.10;;;1.00;;
9330;SDS011;4704;50.470;12.072;2023-11-21T13:40:21;2.00;;;1.20;;
9330;SDS011;4704;50.470;12.072;2023-11-21T13:42:51;0.98;;;0.98;;
9330;SDS011;4704;50.470;12.072;2023-11-21T13:45:20;1.30;;;1.20;;
9330;SDS011;4704;50.470;12.072;2023-11-21T13:47:50;1.20;;;1.10;;
9330;SDS011;4704;50.470;12.072;2023-11-21T13:50:18;2.13;;;1.20;;
9330;SDS011;4704;50.470;12.072;2023-11-21T13:52:48;1.20;;;1.10;;
9330;SDS011;4704;50.470;12.072;2023-11-21T13:55:19;1.35;;;1.10;;
9330;SDS011;4704;50.470;12.072;2023-11-21T13:57:49;1.92;;;1.10;;
9330;SDS011;4704;50.470;12.072;2023-11-21T14:00:17;1.38;;;1.00;;
9330;SDS011;4704;50.470;12.072;2023-11-21T14:03:12;1.15;;;1.05;;
9330;SDS011;4704;50.470;12.072;2023-11-21T14:05:47;1.10;;;1.00;;
9330;SDS011;4704;50.470;12.072;2023-11-21T14:08:17;1.08;;;0.98;;
9330;SDS011;4704;50.470;12.072;2023-11-21T14:10:45;1.50;;;1.08;;
9330;SDS011;4704;50.470;12.072;2023-11-21T14:13:16;1.20;;;1.10;;
9330;SDS011;4704;50.470;12.072;2023-11-21T14:15:44;1.20;;;1.10;;
9330;SDS011;4704;50.470;12.072;2023-11-21T14:18:17;1.20;;;1.10;;
9330;SDS011;4704;50.470;12.072;2023-11-21T14:20:52;1.27;;;1.17;;
9330;SDS011;4704;50.470;12.072;2023-11-21T14:23:20;1.20;;;1.10;;
9330;SDS011;4704;50.470;12.072;2023-11-21T14:25:48;1.58;;;1.48;;
9330;SDS011;4704;50.470;12.072;2023-11-21T14:28:17;1.23;;;1.13;;
9330;SDS011;4704;50.470;12.072;2023-11-21T14:30:44;1.30;;;1.20;;
9330;SDS011;4704;50.470;12.072;2023-11-21T14:33:12;1.30;;;1.20;;
9330;SDS011;4704;50.470;12.072;2023-11-21T14:35:43;1.48;;;1.02;;
9330;SDS011;4704;50.470;12.072;2023-11-21T14:38:10;1.40;;;1.08;;
9330;SDS011;4704;50.470;12.072;2023-11-21T14:40:39;1.38;;;1.10;;
9330;SDS011;4704;50.470;12.072;2023-11-21T14:43:06;1.38;;;1.27;;
9330;SDS011;4704;50.470;12.072;2023-11-21T14:45:34;1.85;;;1.30;;
9330;SDS011;4704;50.470;12.072;2023-11-21T14:48:01;1.38;;;1.27;;
9330;SDS011;4704;50.470;12.072;2023-11-21T14:50:41;1.17;;;1.05;;
9330;SDS011;4704;50.470;12.072;2023-11-21T14:53:38;1.33;;;1.23;;
9330;SDS011;4704;50.470;12.072;2023-11-21T14:56:18;1.92;;;1.50;;
9330;SDS011;4704;50.470;12.072;2023-11-21T14:58:51;1.30;;;1.20;;
9330;SDS011;4704;50.470;12.072;2023-11-21T15:01:19;1.33;;;1.23;;
9330;SDS011;4704;50.470;12.072;2023-11-21T15:04:01;1.58;;;1.10;;
9330;SDS011;4704;50.470;12.072;2023-11-21T15:06:31;1.40;;;1.30;;
9330;SDS011;4704;50.470;12.072;2023-11-21T15:09:00;1.30;;;1.20;;
9330;SDS011;4704;50.470;12.072;2023-11-21T15:11:44;1.38;;;1.05;;
9330;SDS011;4704;50.470;12.072;2023-11-21T15:14:12;1.30;;;1.20;;